Attleborough, United Kingdom
Current Conditions -  °F | °C
As of 7:20 PM on Monday 22 Dec 2014 (Local Time) from EGSH Reporting Station
Few Clouds Few Clouds  
Wind Chill: 12°   Ceiling: Unl
Heat Index: 12°   Visibility: 6mi
Dew Point:   Wind: 24mph
Humidity: 77%   Direction: 240°WSW
Pressure: 29.91"   Gusts: NA
Location:  52.51°N, 1°E
Report Text: EGSH 221920Z 24021KT 210V270 9999 FEW025 12/08 Q1013 NOSIG
Loading
Personal Weather Stations






























Interactive Weather Map New forecast layout! Learn more

10-Day Weather Forecast

Advertisements
Track Severe Weather on mobile